sensor_id;sensor_type;location;lat;lon;timestamp;P1;durP1;ratioP1;P2;durP2;ratioP2
48805;SDS011;34625;47.176;27.548;2024-02-26T00:00:43;13.32;;;7.20;;
48805;SDS011;34625;47.176;27.548;2024-02-26T00:03:11;13.48;;;7.18;;
48805;SDS011;34625;47.176;27.548;2024-02-26T00:05:38;12.73;;;7.00;;
48805;SDS011;34625;47.176;27.548;2024-02-26T00:08:04;12.88;;;6.18;;
48805;SDS011;34625;47.176;27.548;2024-02-26T00:10:31;20.63;;;6.72;;
48805;SDS011;34625;47.176;27.548;2024-02-26T00:12:57;17.80;;;6.35;;
48805;SDS011;34625;47.176;27.548;2024-02-26T00:15:24;11.05;;;5.82;;
48805;SDS011;34625;47.176;27.548;2024-02-26T00:17:50;14.13;;;7.20;;
48805;SDS011;34625;47.176;27.548;2024-02-26T00:20:17;13.50;;;6.78;;
48805;SDS011;34625;47.176;27.548;2024-02-26T00:22:43;17.35;;;7.15;;
48805;SDS011;34625;47.176;27.548;2024-02-26T00:25:10;16.58;;;6.90;;
48805;SDS011;34625;47.176;27.548;2024-02-26T00:27:37;14.00;;;7.63;;
48805;SDS011;34625;47.176;27.548;2024-02-26T00:30:06;11.60;;;7.05;;
48805;SDS011;34625;47.176;27.548;2024-02-26T00:32:32;13.00;;;7.00;;
48805;SDS011;34625;47.176;27.548;2024-02-26T00:34:59;17.35;;;7.80;;
48805;SDS011;34625;47.176;27.548;2024-02-26T00:37:25;10.07;;;5.28;;
48805;SDS011;34625;47.176;27.548;2024-02-26T00:39:52;14.52;;;7.43;;
48805;SDS011;34625;47.176;27.548;2024-02-26T00:42:19;15.00;;;8.13;;
48805;SDS011;34625;47.176;27.548;2024-02-26T00:44:45;14.95;;;7.85;;
48805;SDS011;34625;47.176;27.548;2024-02-26T00:47:12;12.40;;;7.70;;
48805;SDS011;34625;47.176;27.548;2024-02-26T00:49:38;17.50;;;7.20;;
48805;SDS011;34625;47.176;27.548;2024-02-26T00:52:05;11.85;;;5.93;;
48805;SDS011;34625;47.176;27.548;2024-02-26T00:54:31;14.05;;;6.88;;
48805;SDS011;34625;47.176;27.548;2024-02-26T00:56:58;15.43;;;9.25;;
48805;SDS011;34625;47.176;27.548;2024-02-26T00:59:24;15.32;;;7.40;;
48805;SDS011;34625;47.176;27.548;2024-02-26T01:01:51;14.38;;;7.30;;
48805;SDS011;34625;47.176;27.548;2024-02-26T01:04:18;12.65;;;6.40;;
48805;SDS011;34625;47.176;27.548;2024-02-26T01:06:45;13.88;;;7.25;;
48805;SDS011;34625;47.176;27.548;2024-02-26T01:09:11;13.23;;;7.32;;
48805;SDS011;34625;47.176;27.548;2024-02-26T01:11:38;9.40;;;6.10;;
48805;SDS011;34625;47.176;27.548;2024-02-26T01:14:05;15.90;;;7.03;;
48805;SDS011;34625;47.176;27.548;2024-02-26T01:16:31;10.35;;;6.60;;
48805;SDS011;34625;47.176;27.548;2024-02-26T01:18:58;14.23;;;7.15;;
48805;SDS011;34625;47.176;27.548;2024-02-26T01:21:24;8.57;;;5.30;;
48805;SDS011;34625;47.176;27.548;2024-02-26T01:23:54;13.30;;;6.38;;
48805;SDS011;34625;47.176;27.548;2024-02-26T01:26:20;7.47;;;4.88;;
48805;SDS011;34625;47.176;27.548;2024-02-26T01:28:47;9.68;;;4.40;;
48805;SDS011;34625;47.176;27.548;2024-02-26T01:31:14;13.63;;;6.68;;
48805;SDS011;34625;47.176;27.548;2024-02-26T01:33:40;9.93;;;5.03;;
48805;SDS011;34625;47.176;27.548;2024-02-26T01:36:07;13.75;;;6.72;;
48805;SDS011;34625;47.176;27.548;2024-02-26T01:38:33;12.82;;;6.55;;
48805;SDS011;34625;47.176;27.548;2024-02-26T01:41:00;12.48;;;6.10;;
48805;SDS011;34625;47.176;27.548;2024-02-26T01:43:26;10.93;;;6.78;;
48805;SDS011;34625;47.176;27.548;2024-02-26T01:45:53;6.70;;;4.72;;
48805;SDS011;34625;47.176;27.548;2024-02-26T01:48:19;12.90;;;6.38;;
48805;SDS011;34625;47.176;27.548;2024-02-26T01:50:46;12.95;;;5.22;;
48805;SDS011;34625;47.176;27.548;2024-02-26T01:53:12;18.35;;;6.70;;
48805;SDS011;34625;47.176;27.548;2024-02-26T01:55:39;9.57;;;5.05;;
48805;SDS011;34625;47.176;27.548;2024-02-26T01:58:06;12.93;;;5.43;;
48805;SDS011;34625;47.176;27.548;2024-02-26T02:00:33;11.55;;;5.53;;
48805;SDS011;34625;47.176;27.548;2024-02-26T02:02:59;11.90;;;5.55;;
48805;SDS011;34625;47.176;27.548;2024-02-26T02:05:26;14.02;;;5.28;;
48805;SDS011;34625;47.176;27.548;2024-02-26T02:07:53;12.43;;;6.18;;
48805;SDS011;34625;47.176;27.548;2024-02-26T02:10:20;10.45;;;6.13;;
48805;SDS011;34625;47.176;27.548;2024-02-26T02:12:50;13.57;;;6.13;;
48805;SDS011;34625;47.176;27.548;2024-02-26T02:15:17;15.60;;;6.75;;
48805;SDS011;34625;47.176;27.548;2024-02-26T02:17:44;15.82;;;6.63;;
48805;SDS011;34625;47.176;27.548;2024-02-26T02:20:17;12.93;;;7.00;;
48805;SDS011;34625;47.176;27.548;2024-02-26T02:25:09;9.52;;;4.93;;
48805;SDS011;34625;47.176;27.548;2024-02-26T02:27:36;10.15;;;5.07;;
48805;SDS011;34625;47.176;27.548;2024-02-26T02:30:02;10.55;;;5.13;;
48805;SDS011;34625;47.176;27.548;2024-02-26T02:32:30;8.13;;;4.25;;
48805;SDS011;34625;47.176;27.548;2024-02-26T02:34:56;8.55;;;4.18;;
48805;SDS011;34625;47.176;27.548;2024-02-26T02:37:23;9.32;;;4.72;;
48805;SDS011;34625;47.176;27.548;2024-02-26T02:39:49;8.27;;;4.20;;
48805;SDS011;34625;47.176;27.548;2024-02-26T02:42:16;10.18;;;4.97;;
48805;SDS011;34625;47.176;27.548;2024-02-26T02:44:43;7.45;;;4.75;;
48805;SDS011;34625;47.176;27.548;2024-02-26T02:47:10;9.57;;;4.70;;
48805;SDS011;34625;47.176;27.548;2024-02-26T02:49:36;10.10;;;5.22;;
48805;SDS011;34625;47.176;27.548;2024-02-26T02:52:03;13.88;;;5.50;;
48805;SDS011;34625;47.176;27.548;2024-02-26T02:54:29;9.75;;;5.43;;
48805;SDS011;34625;47.176;27.548;2024-02-26T02:56:56;11.18;;;4.88;;
48805;SDS011;34625;47.176;27.548;2024-02-26T02:59:22;10.27;;;5.68;;
48805;SDS011;34625;47.176;27.548;2024-02-26T03:01:48;7.43;;;4.22;;
48805;SDS011;34625;47.176;27.548;2024-02-26T03:04:15;13.63;;;5.15;;
48805;SDS011;34625;47.176;27.548;2024-02-26T03:06:41;7.70;;;4.45;;
48805;SDS011;34625;47.176;27.548;2024-02-26T03:09:08;8.57;;;4.45;;
48805;SDS011;34625;47.176;27.548;2024-02-26T03:11:34;7.25;;;4.47;;
48805;SDS011;34625;47.176;27.548;2024-02-26T03:14:01;5.50;;;3.65;;
48805;SDS011;34625;47.176;27.548;2024-02-26T03:16:27;7.40;;;3.60;;
48805;SDS011;34625;47.176;27.548;2024-02-26T03:18:54;12.73;;;3.80;;
48805;SDS011;34625;47.176;27.548;2024-02-26T03:21:20;6.85;;;3.13;;
48805;SDS011;34625;47.176;27.548;2024-02-26T03:23:47;6.15;;;3.03;;
48805;SDS011;34625;47.176;27.548;2024-02-26T03:26:13;9.80;;;3.22;;
48805;SDS011;34625;47.176;27.548;2024-02-26T03:28:40;4.22;;;3.05;;
48805;SDS011;34625;47.176;27.548;2024-02-26T03:31:06;6.05;;;3.13;;
48805;SDS011;34625;47.176;27.548;2024-02-26T03:33:33;8.70;;;3.55;;
48805;SDS011;34625;47.176;27.548;2024-02-26T03:36:00;10.82;;;3.25;;
48805;SDS011;34625;47.176;27.548;2024-02-26T03:38:28;8.77;;;3.90;;
48805;SDS011;34625;47.176;27.548;2024-02-26T03:40:55;5.72;;;2.88;;
48805;SDS011;34625;47.176;27.548;2024-02-26T03:43:22;8.57;;;3.08;;
48805;SDS011;34625;47.176;27.548;2024-02-26T03:45:48;8.68;;;3.35;;
48805;SDS011;34625;47.176;27.548;2024-02-26T03:48:15;8.57;;;3.13;;
48805;SDS011;34625;47.176;27.548;2024-02-26T03:50:41;8.55;;;2.85;;
48805;SDS011;34625;47.176;27.548;2024-02-26T03:53:08;6.78;;;3.45;;
48805;SDS011;34625;47.176;27.548;2024-02-26T03:55:38;8.38;;;3.42;;
48805;SDS011;34625;47.176;27.548;2024-02-26T03:58:07;6.88;;;3.15;;
48805;SDS011;34625;47.176;27.548;2024-02-26T04:00:34;4.93;;;2.78;;
48805;SDS011;34625;47.176;27.548;2024-02-26T04:03:00;6.55;;;3.75;;
48805;SDS011;34625;47.176;27.548;2024-02-26T04:05:27;7.13;;;3.38;;
48805;SDS011;34625;47.176;27.548;2024-02-26T04:07:53;6.80;;;3.10;;
48805;SDS011;34625;47.176;27.548;2024-02-26T04:10:20;5.18;;;3.17;;
48805;SDS011;34625;47.176;27.548;2024-02-26T04:12:47;4.18;;;2.80;;
48805;SDS011;34625;47.176;27.548;2024-02-26T04:15:13;12.57;;;3.20;;
48805;SDS011;34625;47.176;27.548;2024-02-26T04:17:40;6.43;;;3.22;;
48805;SDS011;34625;47.176;27.548;2024-02-26T04:20:07;10.93;;;3.28;;
48805;SDS011;34625;47.176;27.548;2024-02-26T04:22:35;8.02;;;3.00;;
48805;SDS011;34625;47.176;27.548;2024-02-26T04:25:01;6.90;;;3.35;;
48805;SDS011;34625;47.176;27.548;2024-02-26T04:27:28;6.38;;;3.45;;
48805;SDS011;34625;47.176;27.548;2024-02-26T04:29:54;8.77;;;3.17;;
48805;SDS011;34625;47.176;27.548;2024-02-26T04:32:21;5.53;;;3.38;;
48805;SDS011;34625;47.176;27.548;2024-02-26T04:34:47;7.53;;;3.35;;
48805;SDS011;34625;47.176;27.548;2024-02-26T04:37:14;6.35;;;3.25;;
48805;SDS011;34625;47.176;27.548;2024-02-26T04:39:40;10.05;;;3.15;;
48805;SDS011;34625;47.176;27.548;2024-02-26T04:42:07;6.18;;;3.05;;
48805;SDS011;34625;47.176;27.548;2024-02-26T04:44:33;4.78;;;2.85;;
48805;SDS011;34625;47.176;27.548;2024-02-26T04:47:00;8.52;;;2.83;;
48805;SDS011;34625;47.176;27.548;2024-02-26T04:49:27;11.10;;;3.13;;
48805;SDS011;34625;47.176;27.548;2024-02-26T04:51:53;6.43;;;3.10;;
48805;SDS011;34625;47.176;27.548;2024-02-26T04:54:20;7.63;;;3.10;;
48805;SDS011;34625;47.176;27.548;2024-02-26T04:56:47;6.43;;;3.17;;
48805;SDS011;34625;47.176;27.548;2024-02-26T04:59:14;8.18;;;3.40;;
48805;SDS011;34625;47.176;27.548;2024-02-26T05:01:40;8.40;;;2.63;;
48805;SDS011;34625;47.176;27.548;2024-02-26T05:04:07;8.35;;;3.47;;
48805;SDS011;34625;47.176;27.548;2024-02-26T05:06:33;4.63;;;3.20;;
48805;SDS011;34625;47.176;27.548;2024-02-26T05:09:00;8.43;;;3.42;;
48805;SDS011;34625;47.176;27.548;2024-02-26T05:11:26;4.25;;;2.20;;
48805;SDS011;34625;47.176;27.548;2024-02-26T05:13:52;7.97;;;2.83;;
48805;SDS011;34625;47.176;27.548;2024-02-26T05:16:19;7.57;;;2.95;;
48805;SDS011;34625;47.176;27.548;2024-02-26T05:18:50;7.88;;;2.60;;
48805;SDS011;34625;47.176;27.548;2024-02-26T05:21:16;6.38;;;3.17;;
48805;SDS011;34625;47.176;27.548;2024-02-26T05:23:42;8.85;;;2.83;;
48805;SDS011;34625;47.176;27.548;2024-02-26T05:26:09;6.10;;;2.78;;
48805;SDS011;34625;47.176;27.548;2024-02-26T05:28:35;10.00;;;2.97;;
48805;SDS011;34625;47.176;27.548;2024-02-26T05:31:04;9.27;;;3.83;;
48805;SDS011;34625;47.176;27.548;2024-02-26T05:33:31;7.18;;;3.60;;
48805;SDS011;34625;47.176;27.548;2024-02-26T05:35:57;8.40;;;3.20;;
48805;SDS011;34625;47.176;27.548;2024-02-26T05:38:29;8.07;;;3.05;;
48805;SDS011;34625;47.176;27.548;2024-02-26T05:40:58;10.38;;;3.17;;
48805;SDS011;34625;47.176;27.548;2024-02-26T05:43:25;7.53;;;3.05;;
48805;SDS011;34625;47.176;27.548;2024-02-26T05:45:51;7.80;;;3.42;;
48805;SDS011;34625;47.176;27.548;2024-02-26T05:48:18;10.07;;;3.10;;
48805;SDS011;34625;47.176;27.548;2024-02-26T05:50:45;3.10;;;1.30;;
48805;SDS011;34625;47.176;27.548;2024-02-26T05:53:11;3.40;;;1.65;;
48805;SDS011;34625;47.176;27.548;2024-02-26T05:55:38;3.75;;;2.35;;
48805;SDS011;34625;47.176;27.548;2024-02-26T05:58:05;4.35;;;2.17;;
48805;SDS011;34625;47.176;27.548;2024-02-26T06:00:31;2.75;;;2.33;;
48805;SDS011;34625;47.176;27.548;2024-02-26T06:02:57;2.67;;;2.05;;
48805;SDS011;34625;47.176;27.548;2024-02-26T06:05:24;5.22;;;2.53;;
48805;SDS011;34625;47.176;27.548;2024-02-26T06:07:53;3.70;;;2.95;;
48805;SDS011;34625;47.176;27.548;2024-02-26T06:10:20;6.70;;;5.80;;
48805;SDS011;34625;47.176;27.548;2024-02-26T06:12:47;7.70;;;6.95;;
48805;SDS011;34625;47.176;27.548;2024-02-26T06:15:13;9.13;;;6.25;;
48805;SDS011;34625;47.176;27.548;2024-02-26T06:17:40;4.25;;;3.65;;
48805;SDS011;34625;47.176;27.548;2024-02-26T06:20:06;8.88;;;3.70;;
48805;SDS011;34625;47.176;27.548;2024-02-26T06:22:37;6.25;;;3.63;;
48805;SDS011;34625;47.176;27.548;2024-02-26T06:25:03;9.60;;;4.88;;
48805;SDS011;34625;47.176;27.548;2024-02-26T06:27:30;8.93;;;4.22;;
48805;SDS011;34625;47.176;27.548;2024-02-26T06:29:56;7.60;;;3.97;;
48805;SDS011;34625;47.176;27.548;2024-02-26T06:32:23;8.48;;;4.18;;
48805;SDS011;34625;47.176;27.548;2024-02-26T06:34:49;8.18;;;3.47;;
48805;SDS011;34625;47.176;27.548;2024-02-26T06:37:15;5.40;;;3.55;;
48805;SDS011;34625;47.176;27.548;2024-02-26T06:39:42;9.00;;;4.53;;
48805;SDS011;34625;47.176;27.548;2024-02-26T06:42:08;6.97;;;3.80;;
48805;SDS011;34625;47.176;27.548;2024-02-26T06:44:35;7.22;;;3.78;;
48805;SDS011;34625;47.176;27.548;2024-02-26T06:47:01;10.63;;;4.55;;
48805;SDS011;34625;47.176;27.548;2024-02-26T06:49:29;10.48;;;4.07;;
48805;SDS011;34625;47.176;27.548;2024-02-26T06:51:56;11.20;;;4.35;;
48805;SDS011;34625;47.176;27.548;2024-02-26T06:54:22;7.85;;;3.95;;
48805;SDS011;34625;47.176;27.548;2024-02-26T06:56:49;8.32;;;4.88;;
48805;SDS011;34625;47.176;27.548;2024-02-26T06:59:15;12.68;;;5.00;;
48805;SDS011;34625;47.176;27.548;2024-02-26T07:01:42;8.32;;;4.28;;
48805;SDS011;34625;47.176;27.548;2024-02-26T07:04:08;13.75;;;5.25;;
48805;SDS011;34625;47.176;27.548;2024-02-26T07:06:36;8.50;;;4.70;;
48805;SDS011;34625;47.176;27.548;2024-02-26T07:09:03;14.50;;;4.28;;
48805;SDS011;34625;47.176;27.548;2024-02-26T07:11:29;11.80;;;4.65;;
48805;SDS011;34625;47.176;27.548;2024-02-26T07:13:56;8.80;;;3.72;;
48805;SDS011;34625;47.176;27.548;2024-02-26T07:16:22;15.32;;;4.18;;
48805;SDS011;34625;47.176;27.548;2024-02-26T07:18:49;9.45;;;3.50;;
48805;SDS011;34625;47.176;27.548;2024-02-26T07:21:15;12.27;;;4.05;;
48805;SDS011;34625;47.176;27.548;2024-02-26T07:23:42;10.15;;;3.53;;
48805;SDS011;34625;47.176;27.548;2024-02-26T07:26:09;9.52;;;3.67;;
48805;SDS011;34625;47.176;27.548;2024-02-26T07:28:37;4.78;;;3.25;;
48805;SDS011;34625;47.176;27.548;2024-02-26T07:31:03;9.05;;;4.07;;
48805;SDS011;34625;47.176;27.548;2024-02-26T07:33:30;8.82;;;4.15;;
48805;SDS011;34625;47.176;27.548;2024-02-26T07:35:56;7.22;;;4.03;;
48805;SDS011;34625;47.176;27.548;2024-02-26T07:38:23;5.47;;;3.25;;
48805;SDS011;34625;47.176;27.548;2024-02-26T07:40:49;6.63;;;2.92;;
48805;SDS011;34625;47.176;27.548;2024-02-26T07:43:16;3.15;;;2.30;;
48805;SDS011;34625;47.176;27.548;2024-02-26T07:45:42;7.10;;;2.42;;
48805;SDS011;34625;47.176;27.548;2024-02-26T07:48:08;3.67;;;2.60;;
48805;SDS011;34625;47.176;27.548;2024-02-26T07:50:35;5.88;;;3.47;;
48805;SDS011;34625;47.176;27.548;2024-02-26T07:53:01;8.48;;;3.55;;
48805;SDS011;34625;47.176;27.548;2024-02-26T07:55:28;6.35;;;3.17;;
48805;SDS011;34625;47.176;27.548;2024-02-26T07:57:54;5.97;;;2.90;;
48805;SDS011;34625;47.176;27.548;2024-02-26T08:00:21;8.25;;;3.72;;
48805;SDS011;34625;47.176;27.548;2024-02-26T08:02:47;10.45;;;3.65;;
48805;SDS011;34625;47.176;27.548;2024-02-26T08:05:14;8.82;;;3.33;;
48805;SDS011;34625;47.176;27.548;2024-02-26T08:07:40;8.13;;;3.83;;
48805;SDS011;34625;47.176;27.548;2024-02-26T08:10:07;8.73;;;4.22;;
48805;SDS011;34625;47.176;27.548;2024-02-26T08:12:34;8.85;;;3.55;;
48805;SDS011;34625;47.176;27.548;2024-02-26T08:15:00;8.13;;;3.55;;
48805;SDS011;34625;47.176;27.548;2024-02-26T08:17:27;9.00;;;4.35;;
48805;SDS011;34625;47.176;27.548;2024-02-26T08:19:53;8.90;;;3.22;;
48805;SDS011;34625;47.176;27.548;2024-02-26T08:22:20;10.38;;;4.10;;
48805;SDS011;34625;47.176;27.548;2024-02-26T08:24:46;6.93;;;4.18;;
48805;SDS011;34625;47.176;27.548;2024-02-26T08:27:12;3.60;;;2.10;;
48805;SDS011;34625;47.176;27.548;2024-02-26T08:29:39;2.97;;;1.83;;
48805;SDS011;34625;47.176;27.548;2024-02-26T08:32:06;2.17;;;1.50;;
48805;SDS011;34625;47.176;27.548;2024-02-26T08:34:32;3.85;;;1.58;;
48805;SDS011;34625;47.176;27.548;2024-02-26T08:36:59;5.38;;;1.60;;
48805;SDS011;34625;47.176;27.548;2024-02-26T08:39:25;4.88;;;2.10;;
48805;SDS011;34625;47.176;27.548;2024-02-26T08:41:52;2.40;;;2.00;;
48805;SDS011;34625;47.176;27.548;2024-02-26T08:44:18;8.50;;;3.55;;
48805;SDS011;34625;47.176;27.548;2024-02-26T08:46:45;3.38;;;2.15;;
48805;SDS011;34625;47.176;27.548;2024-02-26T08:49:11;7.82;;;3.25;;
48805;SDS011;34625;47.176;27.548;2024-02-26T08:51:41;6.25;;;2.30;;
48805;SDS011;34625;47.176;27.548;2024-02-26T08:54:10;8.38;;;3.05;;
48805;SDS011;34625;47.176;27.548;2024-02-26T08:56:37;3.75;;;1.98;;
48805;SDS011;34625;47.176;27.548;2024-02-26T08:59:04;2.58;;;1.48;;
48805;SDS011;34625;47.176;27.548;2024-02-26T09:01:33;5.20;;;1.92;;
48805;SDS011;34625;47.176;27.548;2024-02-26T09:03:59;2.83;;;1.65;;
48805;SDS011;34625;47.176;27.548;2024-02-26T09:06:26;5.43;;;2.80;;
48805;SDS011;34625;47.176;27.548;2024-02-26T09:08:53;2.95;;;1.70;;
48805;SDS011;34625;47.176;27.548;2024-02-26T09:11:19;1.48;;;1.38;;
48805;SDS011;34625;47.176;27.548;2024-02-26T09:13:46;2.90;;;1.98;;
48805;SDS011;34625;47.176;27.548;2024-02-26T09:16:13;3.05;;;1.77;;
48805;SDS011;34625;47.176;27.548;2024-02-26T09:18:39;3.22;;;1.77;;
48805;SDS011;34625;47.176;27.548;2024-02-26T09:21:06;3.08;;;1.90;;
48805;SDS011;34625;47.176;27.548;2024-02-26T09:23:32;2.63;;;2.22;;
48805;SDS011;34625;47.176;27.548;2024-02-26T09:26:00;3.45;;;2.58;;
48805;SDS011;34625;47.176;27.548;2024-02-26T09:28:27;2.63;;;2.08;;
48805;SDS011;34625;47.176;27.548;2024-02-26T09:30:57;4.90;;;2.50;;
48805;SDS011;34625;47.176;27.548;2024-02-26T09:33:23;3.85;;;2.05;;
48805;SDS011;34625;47.176;27.548;2024-02-26T09:35:49;5.57;;;3.00;;
48805;SDS011;34625;47.176;27.548;2024-02-26T09:38:16;3.50;;;2.05;;
48805;SDS011;34625;47.176;27.548;2024-02-26T09:40:42;4.90;;;2.28;;
48805;SDS011;34625;47.176;27.548;2024-02-26T09:43:09;3.08;;;2.42;;
48805;SDS011;34625;47.176;27.548;2024-02-26T09:45:38;2.30;;;2.05;;
48805;SDS011;34625;47.176;27.548;2024-02-26T09:48:04;2.28;;;1.90;;
48805;SDS011;34625;47.176;27.548;2024-02-26T09:50:34;3.45;;;1.88;;
48805;SDS011;34625;47.176;27.548;2024-02-26T09:53:01;3.97;;;2.25;;
48805;SDS011;34625;47.176;27.548;2024-02-26T09:55:28;5.22;;;2.88;;
48805;SDS011;34625;47.176;27.548;2024-02-26T09:57:54;2.28;;;1.88;;
48805;SDS011;34625;47.176;27.548;2024-02-26T10:00:22;2.15;;;1.95;;
48805;SDS011;34625;47.176;27.548;2024-02-26T10:02:48;3.83;;;1.85;;
48805;SDS011;34625;47.176;27.548;2024-02-26T10:05:18;2.42;;;2.20;;
48805;SDS011;34625;47.176;27.548;2024-02-26T10:07:45;4.45;;;2.72;;
48805;SDS011;34625;47.176;27.548;2024-02-26T10:10:12;6.05;;;1.98;;
48805;SDS011;34625;47.176;27.548;2024-02-26T10:12:39;3.58;;;1.95;;
48805;SDS011;34625;47.176;27.548;2024-02-26T10:15:06;3.53;;;2.92;;
48805;SDS011;34625;47.176;27.548;2024-02-26T10:17:32;4.57;;;2.22;;
48805;SDS011;34625;47.176;27.548;2024-02-26T10:20:10;7.00;;;3.50;;
48805;SDS011;34625;47.176;27.548;2024-02-26T10:22:37;4.07;;;2.30;;
48805;SDS011;34625;47.176;27.548;2024-02-26T10:25:04;4.72;;;2.22;;
48805;SDS011;34625;47.176;27.548;2024-02-26T10:27:31;4.43;;;2.63;;
48805;SDS011;34625;47.176;27.548;2024-02-26T10:29:57;6.65;;;3.38;;
48805;SDS011;34625;47.176;27.548;2024-02-26T10:32:24;6.38;;;2.63;;
48805;SDS011;34625;47.176;27.548;2024-02-26T10:34:55;4.53;;;3.08;;
48805;SDS011;34625;47.176;27.548;2024-02-26T10:37:22;6.75;;;2.47;;
48805;SDS011;34625;47.176;27.548;2024-02-26T10:39:48;6.55;;;2.67;;
48805;SDS011;34625;47.176;27.548;2024-02-26T10:42:15;9.07;;;3.33;;
48805;SDS011;34625;47.176;27.548;2024-02-26T10:44:43;2.97;;;2.05;;
48805;SDS011;34625;47.176;27.548;2024-02-26T10:47:11;11.07;;;2.63;;
48805;SDS011;34625;47.176;27.548;2024-02-26T10:49:37;5.93;;;2.65;;
48805;SDS011;34625;47.176;27.548;2024-02-26T10:52:04;5.10;;;2.40;;
48805;SDS011;34625;47.176;27.548;2024-02-26T10:54:32;9.02;;;2.55;;
48805;SDS011;34625;47.176;27.548;2024-02-26T10:56:58;4.25;;;1.90;;
48805;SDS011;34625;47.176;27.548;2024-02-26T10:59:26;5.50;;;2.88;;
48805;SDS011;34625;47.176;27.548;2024-02-26T11:01:52;3.88;;;2.03;;
48805;SDS011;34625;47.176;27.548;2024-02-26T11:04:20;5.30;;;2.53;;
48805;SDS011;34625;47.176;27.548;2024-02-26T11:06:48;6.53;;;2.90;;
48805;SDS011;34625;47.176;27.548;2024-02-26T11:09:15;4.28;;;2.05;;
48805;SDS011;34625;47.176;27.548;2024-02-26T11:11:42;5.35;;;2.72;;
48805;SDS011;34625;47.176;27.548;2024-02-26T11:14:09;4.55;;;2.45;;
48805;SDS011;34625;47.176;27.548;2024-02-26T11:16:36;8.25;;;2.35;;
48805;SDS011;34625;47.176;27.548;2024-02-26T11:19:04;4.38;;;2.58;;
48805;SDS011;34625;47.176;27.548;2024-02-26T11:21:33;4.50;;;2.58;;
48805;SDS011;34625;47.176;27.548;2024-02-26T11:24:13;3.22;;;2.33;;
48805;SDS011;34625;47.176;27.548;2024-02-26T11:26:59;6.05;;;2.72;;
48805;SDS011;34625;47.176;27.548;2024-02-26T11:29:32;3.40;;;2.50;;
48805;SDS011;34625;47.176;27.548;2024-02-26T11:34:25;3.67;;;2.17;;
48805;SDS011;34625;47.176;27.548;2024-02-26T11:36:52;3.63;;;2.40;;
48805;SDS011;34625;47.176;27.548;2024-02-26T11:39:19;4.82;;;2.42;;
48805;SDS011;34625;47.176;27.548;2024-02-26T11:41:46;7.82;;;3.15;;
48805;SDS011;34625;47.176;27.548;2024-02-26T11:44:12;5.22;;;2.20;;
48805;SDS011;34625;47.176;27.548;2024-02-26T11:46:42;4.35;;;2.22;;
48805;SDS011;34625;47.176;27.548;2024-02-26T11:52:04;6.38;;;2.40;;
48805;SDS011;34625;47.176;27.548;2024-02-26T11:54:39;4.93;;;2.35;;
48805;SDS011;34625;47.176;27.548;2024-02-26T11:59:53;5.03;;;2.10;;
48805;SDS011;34625;47.176;27.548;2024-02-26T12:05:06;3.13;;;2.20;;
48805;SDS011;34625;47.176;27.548;2024-02-26T12:07:34;2.95;;;2.10;;
48805;SDS011;34625;47.176;27.548;2024-02-26T12:12:47;2.85;;;2.20;;
48805;SDS011;34625;47.176;27.548;2024-02-26T12:15:14;8.90;;;2.70;;
48805;SDS011;34625;47.176;27.548;2024-02-26T12:17:41;4.70;;;1.92;;
48805;SDS011;34625;47.176;27.548;2024-02-26T12:20:08;3.22;;;1.88;;
48805;SDS011;34625;47.176;27.548;2024-02-26T12:22:35;4.75;;;2.30;;
48805;SDS011;34625;47.176;27.548;2024-02-26T12:25:02;2.85;;;2.00;;
48805;SDS011;34625;47.176;27.548;2024-02-26T12:27:29;3.13;;;1.95;;
48805;SDS011;34625;47.176;27.548;2024-02-26T12:29:55;2.60;;;2.13;;
48805;SDS011;34625;47.176;27.548;2024-02-26T12:32:21;5.30;;;2.58;;
48805;SDS011;34625;47.176;27.548;2024-02-26T12:34:50;3.67;;;2.20;;
48805;SDS011;34625;47.176;27.548;2024-02-26T12:37:16;2.67;;;1.75;;
48805;SDS011;34625;47.176;27.548;2024-02-26T12:39:43;3.78;;;2.50;;
48805;SDS011;34625;47.176;27.548;2024-02-26T12:42:11;1.95;;;1.67;;
48805;SDS011;34625;47.176;27.548;2024-02-26T12:44:37;3.40;;;2.20;;
48805;SDS011;34625;47.176;27.548;2024-02-26T12:47:04;3.78;;;2.65;;
48805;SDS011;34625;47.176;27.548;2024-02-26T12:49:31;3.35;;;2.42;;
48805;SDS011;34625;47.176;27.548;2024-02-26T12:51:57;3.25;;;2.13;;
48805;SDS011;34625;47.176;27.548;2024-02-26T12:54:27;2.63;;;1.70;;
48805;SDS011;34625;47.176;27.548;2024-02-26T12:56:54;3.10;;;2.10;;
48805;SDS011;34625;47.176;27.548;2024-02-26T12:59:21;6.82;;;2.92;;
48805;SDS011;34625;47.176;27.548;2024-02-26T13:01:47;3.20;;;2.10;;
48805;SDS011;34625;47.176;27.548;2024-02-26T13:04:14;2.05;;;1.85;;
48805;SDS011;34625;47.176;27.548;2024-02-26T13:06:40;8.40;;;2.72;;
48805;SDS011;34625;47.176;27.548;2024-02-26T13:09:07;3.22;;;2.38;;
48805;SDS011;34625;47.176;27.548;2024-02-26T13:11:34;3.08;;;2.63;;
48805;SDS011;34625;47.176;27.548;2024-02-26T13:14:01;3.65;;;1.83;;
48805;SDS011;34625;47.176;27.548;2024-02-26T13:16:28;3.13;;;2.03;;
48805;SDS011;34625;47.176;27.548;2024-02-26T13:18:54;3.25;;;2.50;;
48805;SDS011;34625;47.176;27.548;2024-02-26T13:21:20;2.65;;;2.08;;
48805;SDS011;34625;47.176;27.548;2024-02-26T13:23:51;4.32;;;2.45;;
48805;SDS011;34625;47.176;27.548;2024-02-26T13:26:22;4.13;;;2.22;;
48805;SDS011;34625;47.176;27.548;2024-02-26T13:29:01;4.60;;;2.22;;
48805;SDS011;34625;47.176;27.548;2024-02-26T13:31:28;7.13;;;2.25;;
48805;SDS011;34625;47.176;27.548;2024-02-26T13:33:55;4.68;;;2.75;;
48805;SDS011;34625;47.176;27.548;2024-02-26T13:36:22;3.25;;;2.67;;
48805;SDS011;34625;47.176;27.548;2024-02-26T13:38:52;2.97;;;2.30;;
48805;SDS011;34625;47.176;27.548;2024-02-26T13:41:21;3.58;;;1.70;;
48805;SDS011;34625;47.176;27.548;2024-02-26T13:43:48;2.65;;;1.90;;
48805;SDS011;34625;47.176;27.548;2024-02-26T13:46:14;4.50;;;2.40;;
48805;SDS011;34625;47.176;27.548;2024-02-26T13:48:42;3.42;;;2.10;;
48805;SDS011;34625;47.176;27.548;2024-02-26T13:51:09;3.88;;;2.03;;
48805;SDS011;34625;47.176;27.548;2024-02-26T13:53:35;2.40;;;2.08;;
48805;SDS011;34625;47.176;27.548;2024-02-26T13:56:02;2.30;;;2.00;;
48805;SDS011;34625;47.176;27.548;2024-02-26T13:58:31;3.47;;;2.35;;
48805;SDS011;34625;47.176;27.548;2024-02-26T14:00:57;5.30;;;2.50;;
48805;SDS011;34625;47.176;27.548;2024-02-26T14:03:25;4.18;;;2.65;;
48805;SDS011;34625;47.176;27.548;2024-02-26T14:05:51;3.97;;;2.40;;
48805;SDS011;34625;47.176;27.548;2024-02-26T14:08:18;4.55;;;2.50;;
48805;SDS011;34625;47.176;27.548;2024-02-26T14:10:45;7.47;;;3.35;;
48805;SDS011;34625;47.176;27.548;2024-02-26T14:13:11;3.75;;;2.42;;
48805;SDS011;34625;47.176;27.548;2024-02-26T14:15:38;3.17;;;2.25;;
48805;SDS011;34625;47.176;27.548;2024-02-26T14:18:05;3.47;;;2.17;;
48805;SDS011;34625;47.176;27.548;2024-02-26T14:20:32;6.32;;;2.22;;
48805;SDS011;34625;47.176;27.548;2024-02-26T14:22:58;3.50;;;2.35;;
48805;SDS011;34625;47.176;27.548;2024-02-26T14:25:25;6.22;;;1.85;;
48805;SDS011;34625;47.176;27.548;2024-02-26T14:27:52;6.18;;;2.58;;
48805;SDS011;34625;47.176;27.548;2024-02-26T14:30:18;3.42;;;2.53;;
48805;SDS011;34625;47.176;27.548;2024-02-26T14:32:45;5.88;;;3.17;;
48805;SDS011;34625;47.176;27.548;2024-02-26T14:35:11;2.92;;;2.00;;
48805;SDS011;34625;47.176;27.548;2024-02-26T14:37:38;4.97;;;2.40;;
48805;SDS011;34625;47.176;27.548;2024-02-26T14:40:05;4.95;;;2.15;;
48805;SDS011;34625;47.176;27.548;2024-02-26T14:42:31;2.40;;;2.17;;
48805;SDS011;34625;47.176;27.548;2024-02-26T14:44:58;8.00;;;2.80;;